EDT,Max TemperatureF,Mean TemperatureF,Min TemperatureF,Max Dew PointF,MeanDew PointF,Min DewpointF,Max Humidity, Mean Humidity, Min Humidity, Max Sea Level PressureIn, Mean Sea Level PressureIn, Min Sea Level PressureIn, Max VisibilityMiles, Mean VisibilityMiles, Min VisibilityMiles, Max Wind SpeedMPH, Mean Wind SpeedMPH, Max Gust SpeedMPH,PrecipitationIn, CloudCover, Events, WindDirDegrees
2013-5-1,62,60,57,58,56,55,94,87,80,30.33,30.25,30.15,10,7,2,17,12,23,0.01,8,Rain,28
2013-5-2,68,62,53,55,53,49,89,77,60,30.34,30.30,30.25,10,9,4,14,8,18,0.00,7,,44
2013-5-3,73,60,48,52,47,41,93,70,38,30.27,30.23,30.19,10,10,8,14,8,22,0.00,2,,43
2013-5-4,66,57,50,52,48,44,87,73,58,30.22,30.15,30.10,10,10,9,15,10,22,0.00,8,,43
2013-5-5,63,55,48,55,51,46,93,81,72,30.13,30.06,30.01,10,9,7,13,10,22,0.00,8,,50
2013-5-6,75,65,57,61,58,54,94,82,61,30.03,29.94,29.85,10,8,2,13,8,23,0.04,7,Rain,76
2013-5-7,73,62,52,61,54,46,100,80,37,29.96,29.90,29.87,10,8,0,10,2,20,0.01,3,Fog-Thunderstorm,183
2013-5-8,75,62,48,57,54,47,93,76,46,30.02,29.97,29.94,10,9,4,12,2,18,0.12,5,Rain-Thunderstorm,239
2013-5-9,81,66,53,60,55,52,100,85,39,30.06,30.01,29.98,10,4,0,8,1,16,0.01,4,Fog,255
2013-5-10,88,71,55,59,56,52,93,60,35,30.07,30.02,29.95,10,10,10,13,5,22,0.00,1,,198
2013-5-11,86,75,66,66,61,57,94,66,40,29.98,29.87,29.79,10,8,1,16,9,26,0.20,3,Rain,208
2013-5-12,75,66,55,63,50,36,87,57,31,30.03,29.88,29.79,10,10,10,13,7,21,0.00,3,,302
2013-5-13,69,60,50,39,34,29,63,41,25,30.18,30.09,30.04,10,10,10,13,7,20,0.00,4,,352
2013-5-14,71,56,41,44,37,31,89,52,25,30.26,30.18,30.11,10,10,10,9,3,,0.00,1,,237
2013-5-15,89,70,53,59,53,43,71,53,36,30.10,30.00,29.89,10,10,9,14,7,21,0.00,1,,207
2013-5-16,89,76,64,61,57,52,81,55,29,29.96,29.93,29.89,10,10,10,17,7,25,0.00,0,,239
2013-5-17,90,74,60,64,59,56,93,60,35,30.11,30.05,29.97,10,9,4,9,3,,0.10,1,Rain-Thunderstorm,69
2013-5-18,78,71,64,68,64,62,94,82,66,30.17,30.14,30.08,10,7,2,9,2,,0.05,4,Rain-Thunderstorm,94
2013-5-19,82,72,64,69,65,63,94,85,54,30.17,30.13,30.09,10,8,2,9,2,,0.20,6,Rain-Thunderstorm,179
2013-5-20,79,72,68,70,67,64,96,87,73,30.14,30.10,30.05,10,9,5,12,4,22,0.10,7,Rain,192
2013-5-21,84,76,69,70,68,66,94,84,66,30.06,30.03,29.96,10,8,3,9,5,18,0.19,6,Rain-Thunderstorm,196
2013-5-22,87,77,68,68,66,64,90,75,48,30.05,30.01,29.94,10,10,10,12,7,20,0.01,4,Rain,199
2013-5-23,84,75,66,70,67,63,94,87,58,29.98,29.92,29.84,10,7,0,25,6,39,1.62,6,Fog-Rain-Thunderstorm,177
2013-5-24,73,64,55,66,57,37,100,77,38,30.17,29.90,29.80,10,7,1,18,4,28,0.00,4,,288
2013-5-25,73,60,46,48,39,35,86,54,26,30.27,30.20,30.14,10,10,10,12,6,18,0.00,0,,314
2013-5-26,73,60,48,50,43,38,86,56,28,30.28,30.22,30.18,10,10,10,7,3,,0.00,0,,337
2013-5-27,80,64,48,53,48,43,93,59,29,30.30,30.24,30.19,10,10,7,7,2,,0.00,0,,170
2013-5-28,84,70,57,63,60,53,87,65,46,30.27,30.22,30.16,10,10,10,13,4,18,0.00,1,,193
2013-5-29,87,74,61,64,62,59,93,65,43,30.25,30.21,30.17,10,10,10,14,7,20,0.00,1,,202
2013-5-30,88,74,61,67,63,59,97,67,40,30.28,30.23,30.19,10,9,3,10,5,,0.00,0,,198
2013-5-31,89,76,64,68,66,63,100,74,45,30.24,30.19,30.11,10,8,0,8,4,,0.00,1,Fog,197